Airfield :
LOGIN :

Register | Disclaimer

   EN    FR    IT 

 










Legend :    VFR   Marginal VFR   IFR   Intensive IFR   Very Intensive IFR
Visi :
Ceiling :
>= 8 km
>= 3000ft
5 to 8 km
1000 to 3000 ft
1500m to 5 km
500 to 1000 ft
800 to 1500m
200 to 500 ft
< 800m
< 200 ft
Symbols :   Thunderstorms  Fog  Heavy snow  Heavy precipitations  Wind > 20 kt
SIGMETs :     Misc.  Thunderstorms  Icing  Turbulence  Mountain Waves  Volcanic Ashes







- Airport Elevation : 495 ft
- IATA code : BUD


LHBP - Budapest Ferihegy

CURRENT METAR :
  • 220030Z 27004KT 0200 R13L/0400N R31R/0400N FG OVC001 09/09 Q1017 NOSIG

EXPIRED METARs :
  • 220000Z 25004KT 220V310 0200 R13L/0400N R31R/0500D FG OVC001 09/09 Q1017 NOSIG
  • 212330Z VRB03KT 0400 R13L/0325N R31R/0300N FG OVC002 09/09 Q1017 TEMPO 0200 FG VV001
  • 212300Z 34004KT 0800 R13L/0400N R31R/0800N FG BKN002 09/09 Q1017 TEMPO 0500 FG OVC002
  • 212237Z VRB03KT 1000 R13L/P1500U R31R/P1500N BCFG BKN002 09/09 Q1017 TEMPO 0600 OVC002
  • 212230Z VRB03KT 2000 R13L/1000U BCFG SCT002 07/07 Q1017 TEMPO 1400 BCFG SCT003
  • 212200Z VRB01G12KT 2000 R13L/1100D R31R/1200U BCFG NSC 08/08 Q1017 TEMPO 1400 BCFG SCT003

TAF TAF LHBP
Valid from the 22 at 00:00 until the 23 at 00:00 UTC


212315Z 2200/2224 VRB03KT 3000 BR NSC
TEMPO 2200/2206 0300 FG VV001
BECMG 2207/2209 09005KT 5000 BR BKN030
BECMG 2210/2212 9999 NSW BKN045
BECMG 2216/2218 35007KT -RA BKN030
No reported NOTAMs for that airfield.



MET'MAP, your aeronautical weather chart ! - Copyright ORBIFLY December 2007 - Disclaimer

ORBIFLY MET'MAP TEAM :

Programming & Development : Alexandra Zaïnal
Concept & Development : Baudouin d'Aumeries
Co-Development & Prog : Marc-Olivier Méhu
Technical & hardware support : Manuel Goepfert

Contact : metmap@orbifly.com




SOURCES & CREDITS :

   NOAA